Ana Sayfa
METAR-TAF:

METAR-TAF

Havaalanları :

St. Francis, Kansas, Amerika Birleşik Devletleri

Enlem: 39-45-40N, Boylam: 101-47-45W, yükseklik: 1040 m

Güncel hava durumu gözlemi

Rapor saat 07:15 UTC de 12 dakika önce yapıldı.
Rüzgar kuzeydan 13 kt ve 19 kt'a kadar ani rüzgarlar
Sıcaklık 9°C
Nem 93%
Basınç 1016 hPa
Görüş mesafesi: 16.1 km
4000 ft yükseklikte çok bulutlu

METAR: KSYF 250715Z AUTO 36013G19KT 10SM OVC040 09/08 A2999 RMK AO2 T00930078 PWINO

Saat: 02:27 (07:27 UTC)


TAF: eksik

4.000'den fazla havaalanı için hava durumu gözlemleri ve tahminleri (METAR ve TAF raporları).

Kullanılabilir istasyonlar harita üzerinde sarı ve kırmızı noktalarla gösterilir.

İstasyonun adını görmek için fareyi noktanın üzerinde gezdirin.

Sonrasında hava gözlem ve tahminlerini görmek için tıklayın.

Haritayı değiştirmek için: yaklaştırmak için siyah artı işaretli yeşil düğmeye ve uzaklaştırmak için de eksi işaretli düğmeye hızla tıklayın; bitişik haritalar için yeşil okları kullanın.


METAR-TAF: